Time;durP1;ratioP1;P1;durP2;ratioP2;P2;SDS_P1;SDS_P2;PMS_P1;PMS_P2;Temp;Humidity;BMP_temperature;BMP_pressure;BME280_temperature;BME280_humidity;BME280_pressure;Samples;Min_cycle;Max_cycle;Signal;HPM_P1;HPM_P2
2022/01/31 00:01:52;;;;;;;12.20;2.37;;;;;;;4.12;46.29;100311.22;6495267;27;35909;-78
2022/01/31 00:04:57;;;;;;;9.63;1.97;;;;;;;4.03;46.49;100322.63;6511941;26;32991;-75
2022/01/31 00:08:02;;;;;;;15.30;3.43;;;;;;;4.61;45.27;100320.91;6509571;27;34523;-78
2022/01/31 00:11:22;;;;;;;12.50;2.37;;;;;;;4.35;45.72;100332.56;6485233;27;43949;-77
2022/01/31 00:14:38;;;;;;;12.82;2.50;;;;;;;3.77;46.90;100330.75;6488526;27;34242;-78
2022/01/31 00:17:46;;;;;;;11.83;2.10;;;;;;;4.41;45.80;100326.44;6473147;27;44609;-79
2022/01/31 00:20:55;;;;;;;11.03;2.20;;;;;;;4.54;45.19;100314.09;6497920;27;33676;-75
2022/01/31 00:24:03;;;;;;;8.63;1.70;;;;;;;4.47;44.99;100322.88;6492458;26;32946;-77
2022/01/31 00:27:18;;;;;;;9.30;1.90;;;;;;;4.20;45.62;100318.94;6502636;27;44631;-76
2022/01/31 00:30:23;;;;;;;8.60;3.03;;;;;;;4.67;44.70;100332.97;6496681;27;33730;-79
2022/01/31 00:33:27;;;;;;;13.37;2.50;;;;;;;4.64;44.81;100331.28;6507365;26;33022;-76
2022/01/31 00:36:52;;;;;;;9.63;1.83;;;;;;;4.24;45.67;100339.66;6498046;27;45080;-78
2022/01/31 00:40:08;;;;;;;13.73;2.30;;;;;;;4.58;44.36;100334.00;6477200;27;34706;-76
2022/01/31 00:43:20;;;;;;;;;;;;;;;4.30;45.13;100343.94;6472589;27;35040;-79
2022/01/31 00:46:34;;;;;;;13.67;2.30;;;;;;;4.67;44.30;100346.00;6462858;27;33496;-79
2022/01/31 00:50:06;;;;;;;14.23;3.20;;;;;;;4.50;44.71;100354.03;6484226;27;35344;-75
2022/01/31 00:53:24;;;;;;;13.23;2.50;;;;;;;4.79;43.79;100333.62;6479349;26;34899;-78
2022/01/31 00:56:30;;;;;;;13.20;2.10;;;;;;;4.95;43.58;100333.38;6471121;27;35071;-77
2022/01/31 00:59:52;;;;;;;8.40;1.77;;;;;;;4.82;43.65;100344.00;6472643;27;44787;-78
2022/01/31 01:03:09;;;;;;;16.30;2.40;;;;;;;4.39;44.46;100342.97;6497410;27;33070;-76
2022/01/31 01:06:21;;;;;;;13.33;2.93;;;;;;;4.58;44.01;100341.78;6494245;27;33371;-75
2022/01/31 01:09:30;;;;;;;13.90;2.43;;;;;;;4.21;44.57;100359.69;6496917;26;33692;-76
2022/01/31 01:12:59;;;;;;;10.83;2.00;;;;;;;4.65;43.83;100356.44;6487267;27;33364;-77
2022/01/31 01:16:18;;;;;;;12.37;2.37;;;;;;;4.94;43.25;100357.69;6511616;26;43380;-75
2022/01/31 01:19:30;;;;;;;7.70;2.07;;;;;;;4.26;44.35;100378.69;6496938;27;34819;-78
2022/01/31 01:22:52;;;;;;;12.30;2.60;;;;;;;3.89;44.94;100373.94;6498574;27;33224;-77
2022/01/31 01:26:01;;;;;;;;;;;;;;;5.02;42.50;100376.66;6471043;27;34903;-75
2022/01/31 01:29:11;;;;;;;15.47;2.70;;;;;;;4.97;42.82;100373.28;6496886;26;44627;-75
2022/01/31 01:32:31;;;;;;;15.00;2.50;;;;;;;5.44;41.48;100370.72;6516210;27;33892;-76
2022/01/31 01:35:41;;;;;;;11.23;2.67;;;;;;;5.42;41.20;100369.88;6467610;27;44045;-79
2022/01/31 01:38:49;;;;;;;13.73;2.57;;;;;;;5.68;40.87;100378.97;6473589;26;34130;-76
2022/01/31 01:42:01;;;;;;;11.90;2.37;;;;;;;4.93;42.37;100371.63;6508198;27;33378;-77
2022/01/31 01:45:09;;;;;;;11.23;2.73;;;;;;;5.56;41.18;100374.84;6488573;27;45284;-76
2022/01/31 01:48:24;;;;;;;;;;;;;;;5.06;41.68;100362.72;6524791;26;34312;-75
2022/01/31 01:51:35;;;;;;;15.47;3.03;;;;;;;5.43;40.76;100353.34;6497026;27;35585;-78
2022/01/31 01:54:54;;;;;;;11.40;1.90;;;;;;;5.82;39.96;100344.78;6474412;27;35638;-78
2022/01/31 01:58:42;;;;;;;12.50;2.30;;;;;;;5.04;41.32;100354.06;6521508;27;33783;-76
2022/01/31 02:01:51;;;;;;;11.93;2.40;;;;;;;5.25;41.02;100332.84;6484003;27;34857;-75
2022/01/31 02:05:01;;;;;;;17.57;3.87;;;;;;;4.57;42.17;100327.03;6459958;27;35645;-76
2022/01/31 02:08:17;;;;;;;16.63;3.10;;;;;;;4.88;41.49;100327.41;6455075;27;33579;-75
2022/01/31 02:11:23;;;;;;;13.80;3.03;;;;;;;4.92;41.53;100313.47;6471653;27;34033;-78
2022/01/31 02:14:42;;;;;;;15.33;2.63;;;;;;;4.58;42.21;100308.81;6496421;27;32919;-78
2022/01/31 02:18:05;;;;;;;17.20;2.57;;;;;;;4.12;43.38;100323.38;6467628;27;34776;-77
2022/01/31 02:21:22;;;;;;;14.47;3.63;;;;;;;4.45;42.70;100298.63;6486856;27;34701;-78
2022/01/31 02:24:47;;;;;;;15.93;2.50;;;;;;;4.72;42.22;100303.38;6435226;27;43520;-78
2022/01/31 02:27:52;;;;;;;14.43;2.70;;;;;;;4.20;42.84;100288.59;6448758;27;35307;-75
2022/01/31 02:31:14;;;;;;;12.57;3.07;;;;;;;4.41;43.20;100312.56;6502295;27;33459;-78
2022/01/31 02:34:31;;;;;;;17.07;2.50;;;;;;;4.92;41.83;100307.41;6502342;27;34511;-77
2022/01/31 02:37:44;;;;;;;13.23;2.90;;;;;;;4.40;42.44;100300.44;6422285;27;43345;-76
2022/01/31 02:41:04;;;;;;;13.00;2.43;;;;;;;4.63;42.27;100300.91;6485804;27;32856;-78
2022/01/31 02:44:24;;;;;;;13.60;2.30;;;;;;;5.28;41.02;100304.13;6481986;27;33107;-75
2022/01/31 02:47:54;;;;;;;13.57;2.67;;;;;;;5.24;40.92;100289.44;6473881;27;44481;-78
2022/01/31 02:51:08;;;;;;;13.40;2.63;;;;;;;4.45;42.51;100270.00;6490031;27;35554;-76
2022/01/31 02:54:21;;;;;;;8.83;2.47;;;;;;;4.54;41.95;100270.69;6453705;27;43470;-78
2022/01/31 02:57:34;;;;;;;14.80;2.67;;;;;;;5.10;41.25;100270.59;6456748;27;34880;-76
2022/01/31 03:00:44;;;;;;;9.73;2.00;;;;;;;4.56;41.68;100263.72;6455981;27;43313;-78
2022/01/31 03:04:03;;;;;;;13.03;3.20;;;;;;;4.76;41.82;100260.75;6451754;27;33480;-76
2022/01/31 03:07:24;;;;;;;16.25;2.85;;;;;;;4.71;41.94;100243.53;6472339;27;44056;-78
2022/01/31 03:10:33;;;;;;;11.40;2.37;;;;;;;5.39;40.47;100239.59;6451510;27;33507;-76
2022/01/31 03:13:43;;;;;;;12.00;2.73;;;;;;;4.56;41.93;100242.03;6469603;27;43250;-75
2022/01/31 03:16:58;;;;;;;9.43;2.70;;;;;;;4.84;41.69;100242.44;6471276;27;34178;-76
2022/01/31 03:20:15;;;;;;;12.27;2.70;;;;;;;4.65;41.84;100244.50;6509235;27;43218;-78
2022/01/31 03:23:30;;;;;;;12.90;2.77;;;;;;;5.11;41.41;100238.44;6481015;27;34553;-78
2022/01/31 03:26:44;;;;;;;12.93;2.17;;;;;;;4.88;41.54;100234.50;6464236;27;33368;-76
2022/01/31 03:29:53;;;;;;;20.00;3.07;;;;;;;4.78;42.08;100240.78;6477327;27;33666;-75
2022/01/31 03:33:13;;;;;;;13.60;2.50;;;;;;;4.58;42.07;100235.94;6445085;27;35641;-78
2022/01/31 03:36:39;;;;;;;13.47;2.37;;;;;;;5.12;41.25;100230.59;6474075;27;34419;-78
2022/01/31 03:40:01;;;;;;;11.60;2.70;;;;;;;4.86;41.61;100233.69;6477495;27;34746;-78
2022/01/31 03:43:10;;;;;;;13.13;2.63;;;;;;;5.20;41.08;100230.44;6461506;27;43258;-78
2022/01/31 03:46:21;;;;;;;10.80;2.37;;;;;;;4.58;41.60;100235.94;6480623;27;34055;-78
2022/01/31 03:49:36;;;;;;;16.27;2.87;;;;;;;5.22;40.81;100241.72;6456477;27;35388;-77
2022/01/31 03:52:48;;;;;;;13.77;2.63;;;;;;;4.93;41.30;100242.25;6436633;27;33755;-77
2022/01/31 03:56:09;;;;;;;12.80;2.97;;;;;;;4.26;42.52;100244.25;6460980;27;34014;-76
2022/01/31 03:59:27;;;;;;;9.90;2.10;;;;;;;4.97;40.98;100236.09;6452238;26;34769;-78
2022/01/31 04:02:36;;;;;;;8.97;2.40;;;;;;;4.89;40.77;100223.22;6488221;26;34519;-76
2022/01/31 04:05:43;;;;;;;13.33;2.67;;;;;;;5.40;39.67;100217.00;6509959;26;32804;-77
2022/01/31 04:08:48;;;;;;;9.83;2.30;;;;;;;4.96;40.61;100202.25;6505292;26;34576;-76
2022/01/31 04:12:01;;;;;;;13.83;2.63;;;;;;;4.82;40.33;100199.91;6478633;27;33186;-76
2022/01/31 04:15:07;;;;;;;17.23;3.07;;;;;;;4.80;40.22;100193.88;6483222;26;44647;-76
2022/01/31 04:18:24;;;;;;;13.50;2.37;;;;;;;5.35;39.27;100193.66;6453493;27;34022;-77
2022/01/31 04:21:45;;;;;;;13.03;2.50;;;;;;;4.57;40.63;100182.16;6450786;27;43675;-79
2022/01/31 04:25:17;;;;;;;15.55;3.47;;;;;;;4.94;40.31;100175.38;6458149;27;33920;-79
2022/01/31 04:28:56;;;;;;;;;;;;;;;4.69;40.45;100181.06;6503161;26;34962;-76
2022/01/31 04:32:11;;;;;;;11.87;2.07;;;;;;;4.64;40.51;100182.91;6526234;26;33993;-76
2022/01/31 04:35:29;;;;;;;7.73;2.17;;;;;;;5.02;39.57;100183.91;6497379;26;34352;-78
2022/01/31 04:38:39;;;;;;;12.80;2.17;;;;;;;5.15;39.08;100169.75;6436986;26;34715;-76
2022/01/31 04:41:51;;;;;;;10.67;2.43;;;;;;;4.74;39.76;100188.78;6522533;26;35883;-78
2022/01/31 04:45:14;;;;;;;11.43;2.20;;;;;;;5.09;39.35;100175.09;6486815;26;34205;-76
2022/01/31 04:48:25;;;;;;;15.83;2.67;;;;;;;5.05;39.50;100176.91;6492255;26;34435;-75
2022/01/31 04:51:39;;;;;;;8.03;2.23;;;;;;;5.83;37.44;100185.66;6494734;26;33085;-78
2022/01/31 04:54:53;;;;;;;12.97;2.30;;;;;;;5.65;37.23;100181.69;6490443;26;34219;-78
2022/01/31 04:58:05;;;;;;;14.00;2.63;;;;;;;5.09;38.71;100182.91;6500837;26;34278;-78
2022/01/31 05:01:13;;;;;;;12.83;2.57;;;;;;;5.03;38.52;100163.06;6517016;26;44021;-79
2022/01/31 05:04:22;;;;;;;11.87;2.47;;;;;;;5.18;38.56;100143.66;6526011;26;34213;-79
2022/01/31 05:07:41;;;;;;;9.97;2.87;;;;;;;4.52;39.39;100121.50;6486780;26;34166;-79
2022/01/31 05:10:50;;;;;;;12.07;2.83;;;;;;;4.38;39.50;100096.59;6528009;26;34436;-78
2022/01/31 05:14:18;;;;;;;12.23;2.33;;;;;;;4.18;40.12;100099.56;6518200;26;43840;-77
2022/01/31 05:17:24;;;;;;;11.53;2.83;;;;;;;4.42;39.63;100103.47;6524117;26;33948;-77
2022/01/31 05:20:51;;;;;;;11.17;2.27;;;;;;;4.53;39.57;100123.22;6512689;26;35449;-77
2022/01/31 05:23:59;;;;;;;17.10;2.87;;;;;;;5.14;38.53;100113.31;6506976;26;34355;-79
2022/01/31 05:27:14;;;;;;;13.83;2.73;;;;;;;5.36;38.13;100106.78;6495290;26;35198;-79
2022/01/31 05:30:43;;;;;;;8.00;2.03;;;;;;;5.06;38.41;100104.81;6492443;26;33309;-79
2022/01/31 05:33:58;;;;;;;10.87;2.20;;;;;;;5.60;37.57;100107.09;6472232;27;33584;-76
2022/01/31 05:37:21;;;;;;;12.73;3.33;;;;;;;5.43;38.17;100107.50;6458938;27;45924;-76
2022/01/31 05:40:46;;;;;;;13.23;2.60;;;;;;;5.12;38.75;100084.72;6397321;27;34362;-76
2022/01/31 05:44:10;;;;;;;15.67;2.63;;;;;;;5.26;38.42;100079.19;6330747;27;32870;-79
2022/01/31 05:47:23;;;;;;;15.47;2.63;;;;;;;5.25;38.66;100098.31;6371644;27;34301;-77
2022/01/31 05:50:46;;;;;;;10.83;2.57;;;;;;;4.80;39.54;100085.38;6385297;27;45148;-79
2022/01/31 05:53:59;;;;;;;15.13;2.40;;;;;;;4.50;40.20;100073.81;6367533;27;35211;-76
2022/01/31 05:57:11;;;;;;;9.30;2.47;;;;;;;5.11;39.18;100069.12;6400354;27;34613;-79
2022/01/31 06:00:22;;;;;;;14.90;2.87;;;;;;;4.67;40.21;100076.09;6375070;27;33061;-76
2022/01/31 06:03:30;;;;;;;12.63;2.73;;;;;;;5.21;39.22;100085.38;6392791;27;33492;-76
2022/01/31 06:06:35;;;;;;;14.73;3.10;;;;;;;6.10;37.76;100084.16;6392043;27;34596;-75
2022/01/31 06:10:01;;;;;;;15.67;3.27;;;;;;;6.19;37.55;100083.94;6389871;27;34805;-80
2022/01/31 06:13:23;;;;;;;15.40;2.57;;;;;;;5.21;38.86;100095.81;6425954;27;34972;-76
2022/01/31 06:16:29;;;;;;;13.83;2.53;;;;;;;5.76;38.48;100090.19;6443992;27;33853;-78
2022/01/31 06:19:43;;;;;;;12.97;2.43;;;;;;;5.84;38.14;100084.78;6447291;27;45210;-78
2022/01/31 06:22:54;;;;;;;10.47;2.50;;;;;;;5.95;37.92;100091.50;6502860;27;33512;-77
2022/01/31 06:26:21;;;;;;;15.67;3.20;;;;;;;5.11;39.70;100089.97;6456761;27;33226;-76
2022/01/31 06:29:47;;;;;;;10.03;2.60;;;;;;;5.80;38.59;100091.00;6438639;27;45940;-79
2022/01/31 06:32:54;;;;;;;16.90;3.50;;;;;;;5.98;37.89;100080.97;6471578;27;34045;-71
2022/01/31 06:36:06;;;;;;;12.23;2.43;;;;;;;5.27;39.50;100086.09;6455239;27;44207;-69
2022/01/31 06:39:10;;;;;;;12.77;2.60;;;;;;;6.09;38.29;100079.84;6462417;27;34839;-67
2022/01/31 06:42:52;;;;;;;15.30;3.07;;;;;;;5.32;39.84;100080.81;6488389;27;35109;-62
2022/01/31 06:45:56;;;;;;;17.67;3.97;;;;;;;5.02;40.18;100077.09;6485436;27;35447;-66
2022/01/31 06:49:38;;;;;;;14.27;2.87;;;;;;;5.24;39.87;100082.72;6431291;27;34172;-64
2022/01/31 06:52:55;;;;;;;14.37;2.43;;;;;;;5.81;39.12;100088.34;6458946;27;36739;-66
2022/01/31 06:56:29;;;;;;;12.43;2.90;;;;;;;5.19;40.31;100081.97;6472825;27;34101;-64
2022/01/31 06:59:40;;;;;;;16.33;3.93;;;;;;;5.66;39.08;100060.87;6446292;27;45297;-64
2022/01/31 07:02:45;;;;;;;14.00;3.30;;;;;;;5.14;40.16;100048.19;6426272;27;34040;-63
2022/01/31 07:05:57;;;;;;;21.13;3.93;;;;;;;5.38;39.94;100047.63;6455081;27;32662;-62
2022/01/31 07:09:18;;;;;;;15.98;3.03;;;;;;;5.09;40.34;100045.72;6339299;27;43805;-66
2022/01/31 07:12:31;;;;;;;14.53;3.07;;;;;;;5.52;40.00;100041.25;6377551;27;33096;-65
2022/01/31 07:16:02;;;;;;;17.40;3.50;;;;;;;5.84;39.33;100041.31;6367510;27;43104;-63
2022/01/31 07:27:26;;;;;;;18.63;2.90;;;;;;;5.59;39.74;100020.19;6396478;27;20089;-65
2022/01/31 07:31:02;;;;;;;19.67;3.30;;;;;;;5.78;39.80;100010.16;6409074;27;35238;-68
2022/01/31 07:34:11;;;;;;;15.43;3.23;;;;;;;5.74;39.70;100013.75;6409314;27;34047;-63
2022/01/31 07:37:20;;;;;;;12.53;3.37;;;;;;;5.90;39.20;99999.41;6418699;27;44482;-65
2022/01/31 07:40:40;;;;;;;16.70;2.63;;;;;;;6.06;39.35;100001.69;6426064;27;34715;-62
2022/01/31 07:43:45;;;;;;;19.60;3.10;;;;;;;5.78;39.77;99996.28;6457267;27;44488;-65
2022/01/31 07:46:53;;;;;;;19.60;3.37;;;;;;;6.07;39.05;99978.16;6490986;27;34351;-62
2022/01/31 07:50:30;;;;;;;14.05;2.87;;;;;;;7.18;37.16;99965.31;6403385;27;34380;-66
2022/01/31 07:53:59;;;;;;;13.10;2.90;;;;;;;6.59;38.09;99960.16;6470270;27;35029;-62
2022/01/31 07:57:50;;;;;;;16.50;3.57;;;;;;;5.25;40.52;99973.25;6444771;27;44576;-62
2022/01/31 08:00:57;;;;;;;10.37;2.83;;;;;;;6.27;37.88;99979.34;6550144;26;33120;-94
2022/01/31 08:04:03;;;;;;;15.80;2.62;;;;;;;5.92;38.47;99971.56;6534635;26;32989;-94
2022/01/31 08:07:12;;;;;;;15.33;2.93;;;;;;;6.31;38.03;99978.34;6511639;27;44003;-93
2022/01/31 08:10:22;;;;;;;17.42;3.03;;;;;;;6.70;37.35;99953.72;6526787;27;32414;-96
2022/01/31 08:13:43;;;;;;;19.75;3.65;;;;;;;7.12;36.91;99976.78;6510908;26;34312;-96
2022/01/31 08:16:49;;;;;;;;;;;;;;;7.28;36.35;99974.56;6527556;27;35040;-96
2022/01/31 08:20:12;;;;;;;14.83;2.97;;;;;;;7.08;37.03;99977.78;6518796;27;43839;-95
2022/01/31 08:23:47;;;;;;;;;;;;;;;;;;;;;
2022/01/31 08:27:01;;;;;;;14.77;3.33;;;;;;;7.43;35.60;99952.28;6556388;26;34164;-96
2022/01/31 08:30:26;;;;;;;12.00;3.03;;;;;;;7.55;36.29;99942.28;6494461;27;45226;-96
2022/01/31 08:33:47;;;;;;;16.90;3.40;;;;;;;7.73;35.90;99951.25;6492022;27;33665;-96
2022/01/31 08:37:24;;;;;;;14.87;3.43;;;;;;;6.75;36.76;99937.88;6472596;27;35841;-64
2022/01/31 08:40:31;;;;;;;12.90;2.67;;;;;;;7.85;35.51;99939.50;6449599;27;34059;-66
2022/01/31 08:43:38;;;;;;;12.23;2.77;;;;;;;8.05;35.46;99944.91;6469649;27;44563;-66
2022/01/31 08:46:43;;;;;;;14.87;3.10;;;;;;;7.78;36.31;99938.84;6461623;27;35273;-64
2022/01/31 08:49:49;;;;;;;18.53;3.77;;;;;;;7.25;36.81;99933.69;6432538;27;34248;-63
2022/01/31 08:52:53;;;;;;;10.37;2.87;;;;;;;7.60;36.46;99922.06;6492262;27;34286;-62
2022/01/31 09:00:17;;;;;;;15.10;3.00;;;;;;;7.90;35.77;99910.56;6493248;27;35102;-68
2022/01/31 09:03:54;;;;;;;17.00;3.73;;;;;;;7.79;35.83;99906.59;6408548;27;34455;-64
2022/01/31 09:06:59;;;;;;;14.00;2.93;;;;;;;6.96;37.66;99912.88;6440091;27;33540;-63
2022/01/31 09:10:05;;;;;;;12.93;2.70;;;;;;;7.39;36.79;99912.31;6389141;27;34841;-63
2022/01/31 09:13:14;;;;;;;13.37;3.27;;;;;;;7.23;37.39;99913.75;6466249;27;43535;-64
2022/01/31 09:16:45;;;;;;;16.92;3.22;;;;;;;7.28;37.05;99917.06;6451347;27;35846;-63
2022/01/31 09:19:51;;;;;;;17.03;3.20;;;;;;;7.19;37.22;99910.34;6451370;27;34450;-62
2022/01/31 09:23:52;;;;;;;21.10;3.57;;;;;;;7.01;37.70;99908.34;6520917;27;35601;-63
2022/01/31 09:27:14;;;;;;;13.43;2.67;;;;;;;7.75;37.08;99901.50;6374458;27;36832;-65
2022/01/31 09:30:22;;;;;;;16.47;2.83;;;;;;;8.32;35.76;99911.63;6413058;27;33817;-62
2022/01/31 09:33:27;;;;;;;18.97;4.17;;;;;;;6.62;38.68;99913.03;6417490;27;35061;-65
2022/01/31 09:36:30;;;;;;;11.50;2.60;;;;;;;6.24;40.08;99904.59;6415103;27;34971;-62
2022/01/31 09:39:34;;;;;;;13.53;2.63;;;;;;;5.96;40.29;99894.94;6418976;27;34132;-68
2022/01/31 09:42:58;;;;;;;16.37;3.60;;;;;;;6.93;39.18;99887.69;6410223;27;43411;-65
2022/01/31 09:46:29;;;;;;;15.33;3.20;;;;;;;7.30;37.85;99878.63;6461271;27;36187;-64
2022/01/31 09:49:28;;;;;;;15.17;3.23;;;;;;;6.83;39.63;99862.78;6445184;27;34321;-64
2022/01/31 09:52:35;;;;;;;13.63;3.17;;;;;;;6.86;39.38;99840.91;6452773;27;35424;-63
2022/01/31 09:55:44;;;;;;;18.33;3.57;;;;;;;6.55;40.21;99857.53;6440020;27;44638;-63
2022/01/31 09:58:51;;;;;;;11.13;2.83;;;;;;;7.45;38.40;99825.81;6472631;27;35799;-65
2022/01/31 10:01:55;;;;;;;33.17;5.13;;;;;;;7.41;38.58;99821.62;6485875;27;35251;-65
2022/01/31 10:04:58;;;;;;;20.37;3.53;;;;;;;7.03;39.36;99821.16;6466104;27;34427;-64
2022/01/31 10:08:13;;;;;;;14.63;3.77;;;;;;;6.73;39.38;99809.97;6499335;27;33767;-67
2022/01/31 10:11:38;;;;;;;11.10;3.33;;;;;;;7.63;38.14;99789.47;6471534;27;34738;-67
2022/01/31 10:18:10;;;;;;;;;;;;;;;8.12;37.24;99791.09;6570425;26;44548;-66
2022/01/31 10:22:10;;;;;;;18.00;7.93;;;;;;;7.54;37.85;99783.66;6550952;26;35272;-64
2022/01/31 10:25:23;;;;;;;15.53;3.40;;;;;;;7.33;38.90;99779.19;6536440;26;35131;-63
2022/01/31 10:28:48;;;;;;;11.80;3.23;;;;;;;7.20;39.29;99777.91;6574091;26;34364;-63
2022/01/31 10:32:01;;;;;;;13.63;3.30;;;;;;;8.06;37.48;99771.25;6557032;26;34287;-65
2022/01/31 10:35:07;;;;;;;13.37;3.20;;;;;;;8.06;37.06;99752.94;6557945;26;44697;-64
2022/01/31 10:38:16;;;;;;;13.43;3.33;;;;;;;7.87;37.84;99750.16;6567369;26;34311;-66
2022/01/31 10:45:22;;;;;;;21.17;4.87;;;;;;;8.62;36.58;99739.34;6574705;26;33568;-65
2022/01/31 10:56:19;;;;;;;20.30;3.70;;;;;;;8.27;36.60;99724.19;6612828;26;35111;-95
2022/01/31 10:59:36;;;;;;;23.70;3.73;;;;;;;8.81;35.61;99704.53;6544932;26;1016394;-96
2022/01/31 11:02:55;;;;;;;18.30;3.20;;;;;;;7.52;38.62;99704.41;6613355;26;34029;-95
2022/01/31 11:06:10;;;;;;;13.70;3.10;;;;;;;7.44;38.69;99701.22;6585168;26;33756;-93
2022/01/31 11:09:15;;;;;;;12.60;3.40;;;;;;;8.35;36.38;99688.97;6608665;26;44397;-96
2022/01/31 11:12:26;;;;;;;13.13;2.73;;;;;;;8.90;35.70;99654.34;6593879;26;34537;-96
2022/01/31 11:15:44;;;;;;;13.40;3.03;;;;;;;8.03;37.54;99676.28;6606737;26;36936;-95
2022/01/31 11:18:49;;;;;;;13.50;3.23;;;;;;;7.22;38.81;99679.41;6598961;26;33002;-95
2022/01/31 11:22:09;;;;;;;12.07;3.75;;;;;;;8.52;36.52;99658.63;6591502;26;33172;-95
2022/01/31 11:25:52;;;;;;;10.93;2.57;;;;;;;6.88;39.95;99649.25;6612492;26;34957;-96
2022/01/31 11:28:58;;;;;;;;;;;;;;;8.28;37.15;99626.41;6603483;26;33101;-96
2022/01/31 11:32:08;;;;;;;12.23;2.70;;;;;;;7.63;37.80;99619.47;6572405;26;34111;-95
2022/01/31 11:35:26;;;;;;;11.20;2.70;;;;;;;8.48;36.36;99617.75;6543489;26;35948;-66
2022/01/31 11:38:34;;;;;;;12.70;2.83;;;;;;;7.59;37.76;99619.56;6577527;26;35995;-64
2022/01/31 11:41:55;;;;;;;9.50;2.60;;;;;;;8.15;37.02;99594.66;6561057;26;43377;-62
2022/01/31 11:45:04;;;;;;;12.03;2.50;;;;;;;8.95;35.00;99585.09;6547093;26;34892;-63
2022/01/31 11:48:26;;;;;;;12.53;2.97;;;;;;;8.94;34.64;99585.12;6579701;26;44700;-66
2022/01/31 11:51:32;;;;;;;9.77;2.67;;;;;;;8.75;35.03;99582.50;6564111;26;34595;-61
2022/01/31 11:55:01;;;;;;;8.73;2.50;;;;;;;8.29;36.30;99588.84;6544945;26;44384;-61
2022/01/31 11:58:10;;;;;;;9.07;2.60;;;;;;;8.02;36.57;99564.69;6551280;26;34477;-66
2022/01/31 12:01:18;;;;;;;11.77;2.67;;;;;;;7.75;37.33;99545.75;6528466;26;34585;-65
2022/01/31 12:04:24;;;;;;;10.43;2.60;;;;;;;7.20;38.48;99547.91;6573291;26;34314;-65
2022/01/31 12:07:41;;;;;;;11.63;3.30;;;;;;;8.92;34.99;99545.06;6565324;26;35446;-63
2022/01/31 12:10:56;;;;;;;15.83;3.50;;;;;;;8.98;34.63;99555.25;6487233;26;35465;-67
2022/01/31 12:14:47;;;;;;;11.13;3.03;;;;;;;8.35;35.45;99550.19;6496244;27;35178;-63
2022/01/31 12:22:00;;;;;;;13.90;3.13;;;;;;;9.20;34.21;99544.63;6485612;27;36274;-63
2022/01/31 12:25:25;;;;;;;10.23;2.37;;;;;;;8.44;35.71;99554.19;6432893;27;43699;-64
2022/01/31 12:28:43;;;;;;;14.27;3.13;;;;;;;8.82;34.83;99562.09;6483509;27;35171;-65
2022/01/31 12:31:57;;;;;;;12.13;2.87;;;;;;;8.22;36.03;99559.44;6450812;27;36495;-62
2022/01/31 12:35:01;;;;;;;15.53;3.73;;;;;;;7.73;36.47;99547.56;6478847;27;33418;-67
2022/01/31 12:38:09;;;;;;;8.50;2.63;;;;;;;8.33;36.30;99546.75;6493979;27;33804;-64
2022/01/31 12:41:33;;;;;;;11.57;2.87;;;;;;;7.94;36.21;99538.84;6472412;27;34206;-68
2022/01/31 12:45:00;;;;;;;15.50;3.30;;;;;;;8.78;35.21;99529.13;6483561;27;45314;-66
2022/01/31 12:48:06;;;;;;;8.47;3.23;;;;;;;7.76;37.00;99521.28;6467082;27;44664;-61
2022/01/31 12:51:09;;;;;;;14.17;4.00;;;;;;;7.31;37.51;99522.22;6501107;27;34218;-65
2022/01/31 12:54:20;;;;;;;15.02;3.10;;;;;;;8.46;36.00;99507.00;6477880;27;35168;-64
2022/01/31 12:57:27;;;;;;;16.73;3.43;;;;;;;8.68;35.23;99503.31;6467518;27;34094;-66
2022/01/31 13:00:43;;;;;;;20.20;5.90;;;;;;;8.09;36.20;99506.78;6488699;27;45685;-68
2022/01/31 13:04:12;;;;;;;11.90;2.90;;;;;;;7.80;37.44;99501.94;6473583;27;44893;-63
2022/01/31 13:07:18;;;;;;;15.53;2.93;;;;;;;8.96;35.21;99494.22;6495683;27;34750;-67
2022/01/31 13:10:58;;;;;;;10.40;2.10;;;;;;;8.77;35.34;99509.09;6505779;27;43359;-62
2022/01/31 13:14:10;;;;;;;15.70;3.45;;;;;;;8.48;35.79;99495.50;6501354;27;34135;-65
2022/01/31 13:17:33;;;;;;;10.33;2.40;;;;;;;7.84;37.38;99475.56;6513456;27;34668;-62
2022/01/31 13:20:37;;;;;;;11.45;2.78;;;;;;;8.10;37.14;99479.69;6505155;27;44981;-62
2022/01/31 13:23:45;;;;;;;9.27;2.73;;;;;;;8.83;35.27;99459.03;6492097;27;36333;-67
2022/01/31 13:26:59;;;;;;;8.90;2.40;;;;;;;8.24;36.42;99467.75;6491076;27;33241;-66
2022/01/31 13:30:30;;;;;;;11.20;2.20;;;;;;;8.09;36.79;99462.28;6503507;27;35289;-68
2022/01/31 13:34:15;;;;;;;9.73;2.90;;;;;;;7.80;37.25;99458.31;6497914;26;44475;-67
2022/01/31 13:37:32;;;;;;;12.27;2.80;;;;;;;7.85;37.47;99453.72;6580787;26;33031;-61
2022/01/31 13:40:47;;;;;;;13.63;2.60;;;;;;;7.74;38.11;99448.12;6562410;26;44218;-62
2022/01/31 13:43:51;;;;;;;11.07;3.70;;;;;;;7.67;38.26;99453.69;6568964;26;35113;-62
2022/01/31 13:46:57;;;;;;;12.00;2.83;;;;;;;7.11;39.62;99441.16;6579958;26;34069;-63
2022/01/31 13:50:27;;;;;;;12.23;2.80;;;;;;;7.46;38.85;99435.31;6561417;26;34253;-66
2022/01/31 13:53:37;;;;;;;11.80;3.60;;;;;;;7.92;38.07;99428.19;6570480;26;34464;-62
2022/01/31 13:56:52;;;;;;;11.30;3.07;;;;;;;7.89;37.89;99433.53;6509312;26;44423;-63
2022/01/31 14:00:14;;;;;;;22.67;3.13;;;;;;;7.71;38.66;99431.69;6584821;26;43572;-65
2022/01/31 14:03:17;;;;;;;9.27;3.27;;;;;;;7.78;38.34;99430.50;6553731;26;33402;-68
2022/01/31 14:06:20;;;;;;;11.82;3.12;;;;;;;7.53;38.84;99428.06;6553725;26;35486;-65
2022/01/31 14:09:35;;;;;;;12.13;3.20;;;;;;;7.31;39.18;99422.91;6558531;26;35468;-65
2022/01/31 14:12:40;;;;;;;23.27;3.27;;;;;;;7.40;38.85;99432.13;6534674;26;43287;-64
2022/01/31 14:15:52;;;;;;;11.20;3.00;;;;;;;7.33;39.03;99423.69;6569460;26;34508;-69
2022/01/31 14:19:15;;;;;;;14.30;3.50;;;;;;;7.62;38.51;99425.09;6574170;26;35394;-67
2022/01/31 14:22:26;;;;;;;19.13;4.00;;;;;;;7.65;38.36;99424.09;6555135;26;34148;-65
2022/01/31 14:25:48;;;;;;;15.87;4.13;;;;;;;7.99;37.86;99416.53;6533179;26;34122;-63
2022/01/31 14:29:01;;;;;;;14.27;3.30;;;;;;;8.12;37.74;99412.44;6573458;26;34450;-64
2022/01/31 14:32:15;;;;;;;15.53;3.90;;;;;;;8.23;37.73;99403.25;6514378;26;44751;-66
2022/01/31 14:35:23;;;;;;;16.33;3.67;;;;;;;7.72;39.00;99404.63;6542199;26;33057;-65
2022/01/31 14:38:36;;;;;;;16.20;3.40;;;;;;;7.26;39.82;99398.72;6545639;26;34109;-67
2022/01/31 14:48:31;;;;;;;10.93;3.17;;;;;;;7.51;39.76;99395.91;6557196;26;35123;-66
2022/01/31 14:51:37;;;;;;;11.73;2.30;;;;;;;7.20;40.85;99393.72;6569675;26;44072;-66
2022/01/31 14:54:42;;;;;;;11.60;2.70;;;;;;;7.74;39.22;99381.88;6579355;26;35281;-67
2022/01/31 14:57:49;;;;;;;14.40;3.03;;;;;;;7.42;39.99;99388.47;6530740;26;35352;-62
2022/01/31 15:00:59;;;;;;;13.23;3.03;;;;;;;7.42;39.99;99389.31;6540163;26;34047;-61
2022/01/31 15:04:18;;;;;;;14.70;3.27;;;;;;;7.32;40.30;99393.22;6567032;26;35246;-64
2022/01/31 15:07:22;;;;;;;11.83;3.20;;;;;;;7.30;40.52;99392.44;6580311;26;33121;-62
2022/01/31 15:10:31;;;;;;;13.13;3.37;;;;;;;7.67;39.80;99390.91;6551328;26;34799;-64
2022/01/31 15:13:41;;;;;;;9.43;2.80;;;;;;;7.87;39.48;99388.28;6541408;26;45061;-62
2022/01/31 15:16:45;;;;;;;7.90;2.70;;;;;;;7.58;40.00;99384.28;6562877;26;34648;-64
2022/01/31 15:20:39;;;;;;;14.32;3.80;;;;;;;7.53;40.22;99379.25;6511184;26;34420;-60
2022/01/31 15:24:10;;;;;;;12.57;2.80;;;;;;;7.37;40.54;99378.22;6563197;26;34172;-66
2022/01/31 15:27:41;;;;;;;12.43;3.07;;;;;;;7.27;40.63;99382.09;6511263;26;34636;-66
2022/01/31 15:30:47;;;;;;;10.30;3.10;;;;;;;7.03;41.30;99378.75;6580715;26;33999;-62
2022/01/31 15:33:53;;;;;;;15.97;3.40;;;;;;;7.35;40.59;99392.28;6542757;26;33690;-65
2022/01/31 15:36:56;;;;;;;14.60;3.40;;;;;;;7.19;40.65;99394.66;6478602;26;34004;-64
2022/01/31 15:39:59;;;;;;;15.65;4.15;;;;;;;7.18;40.84;99392.94;6495901;26;34522;-64
2022/01/31 15:43:13;;;;;;;15.17;3.30;;;;;;;7.14;40.51;99396.59;6543830;26;44239;-64
2022/01/31 15:46:19;;;;;;;13.27;3.30;;;;;;;7.42;40.36;99391.09;6540309;26;34948;-64
2022/01/31 15:49:35;;;;;;;14.57;3.50;;;;;;;7.54;40.29;99385.34;6521664;26;33078;-63
2022/01/31 15:52:53;;;;;;;10.67;3.13;;;;;;;7.76;39.74;99391.34;6533810;26;35939;-61
2022/01/31 15:56:01;;;;;;;11.20;3.57;;;;;;;7.65;39.99;99380.50;6539468;26;34123;-62
2022/01/31 15:59:05;;;;;;;14.17;4.13;;;;;;;7.62;40.10;99393.72;6535127;26;34883;-62